Time;durP1;ratioP1;P1;durP2;ratioP2;P2;SDS_P1;SDS_P2;PMS_P1;PMS_P2;Temp;Humidity;BMP_temperature;BMP_pressure;BME280_temperature;BME280_humidity;BME280_pressure;Samples;Min_cycle;Max_cycle;Signal;HPM_P1;HPM_P2
2022/05/21 00:00:14;;;;;;;7.40;1.53;;;20.10;99.90;;;;;;4419728;28;660203;-66
2022/05/21 00:03:01;;;;;;;7.30;1.73;;;20.00;99.90;;;;;;4398684;28;658808;-66
2022/05/21 00:05:50;;;;;;;8.60;1.80;;;19.90;99.90;;;;;;4420873;28;659550;-66
2022/05/21 00:08:37;;;;;;;5.63;1.63;;;19.80;99.90;;;;;;4400298;28;660010;-66
2022/05/21 00:11:24;;;;;;;6.10;1.60;;;19.80;99.90;;;;;;4418410;28;659182;-66
2022/05/21 00:14:12;;;;;;;11.93;1.90;;;19.60;99.90;;;;;;4399761;28;658615;-66
2022/05/21 00:16:59;;;;;;;4.80;2.00;;;19.50;99.90;;;;;;4403466;28;659621;-67
2022/05/21 00:19:46;;;;;;;10.33;1.90;;;19.30;99.90;;;;;;4401693;28;658413;-67
2022/05/21 00:22:35;;;;;;;7.03;1.73;;;19.00;99.90;;;;;;4420526;28;660040;-66
2022/05/21 00:25:22;;;;;;;6.13;1.50;;;18.70;99.90;;;;;;4394598;28;661543;-66
2022/05/21 00:28:09;;;;;;;11.87;1.73;;;18.70;99.90;;;;;;4418333;28;658939;-66
2022/05/21 00:30:56;;;;;;;11.37;1.80;;;18.50;99.90;;;;;;4396162;28;659662;-66
2022/05/21 00:33:44;;;;;;;7.93;1.60;;;18.30;99.90;;;;;;4413174;28;660934;-66
2022/05/21 00:36:31;;;;;;;7.07;1.73;;;18.30;99.90;;;;;;4399955;28;658989;-66
2022/05/21 00:39:20;;;;;;;8.93;1.60;;;18.20;99.90;;;;;;4406056;28;659690;-66
2022/05/21 00:42:07;;;;;;;5.77;1.87;;;18.10;99.90;;;;;;4397410;28;659946;-66
2022/05/21 00:44:55;;;;;;;7.30;1.80;;;17.90;99.90;;;;;;4420224;28;658984;-66
2022/05/21 00:47:42;;;;;;;5.43;2.10;;;17.90;99.90;;;;;;4427998;28;659765;-66
2022/05/21 00:50:30;;;;;;;8.03;1.90;;;17.70;99.90;;;;;;4423359;28;658463;-66
2022/05/21 00:53:17;;;;;;;2.53;1.40;;;17.70;99.90;;;;;;4399085;28;659166;-66
2022/05/21 00:56:06;;;;;;;3.50;1.67;;;17.70;99.90;;;;;;4417480;28;658943;-66
2022/05/21 01:02:00;;;;;;;4.03;1.80;;;17.50;99.90;;;;;;4395010;28;659529;-66
2022/05/21 01:04:47;;;;;;;19.33;2.00;;;17.50;99.90;;;;;;4398314;28;659875;-66
2022/05/21 01:07:36;;;;;;;3.20;1.80;;;17.40;99.90;;;;;;4416295;28;659194;-66
2022/05/21 01:10:27;;;;;;;9.50;2.40;;;17.30;99.90;;;;;;4395206;28;658989;-66
2022/05/21 01:13:18;;;;;;;6.93;2.13;;;17.40;99.90;;;;;;4392631;28;658669;-66
2022/05/21 01:16:06;;;;;;;6.63;2.10;;;17.20;99.90;;;;;;4409747;28;658984;-66
2022/05/21 01:18:53;;;;;;;4.70;1.70;;;17.20;99.90;;;;;;4421948;28;659911;-66
2022/05/21 01:21:40;;;;;;;5.87;2.33;;;17.00;99.90;;;;;;4403227;28;660023;-66
2022/05/21 01:24:29;;;;;;;6.27;2.10;;;16.80;99.90;;;;;;4422857;28;659425;-66
2022/05/21 01:27:16;;;;;;;5.83;2.00;;;16.70;99.90;;;;;;4392160;28;658830;-66
2022/05/21 01:30:04;;;;;;;3.40;2.00;;;16.60;99.90;;;;;;4417935;28;659043;-66
2022/05/21 01:32:52;;;;;;;5.47;2.13;;;16.50;99.90;;;;;;4398480;28;658429;-66
2022/05/21 01:35:39;;;;;;;11.70;2.50;;;16.50;99.90;;;;;;4416218;28;658967;-66
2022/05/21 01:38:27;;;;;;;5.67;2.20;;;16.50;99.90;;;;;;4381553;28;660682;-66
2022/05/21 01:41:16;;;;;;;9.87;2.40;;;16.60;99.90;;;;;;4419192;28;658690;-66
2022/05/21 01:47:09;;;;;;;4.87;1.70;;;16.50;99.90;;;;;;4391469;28;660599;-66
2022/05/21 01:49:56;;;;;;;5.20;2.30;;;16.40;99.90;;;;;;4394499;28;658975;-66
2022/05/21 01:52:44;;;;;;;10.13;2.20;;;16.10;99.90;;;;;;4413531;28;659468;-66
2022/05/21 01:55:31;;;;;;;8.73;2.90;;;16.50;99.90;;;;;;4395576;28;661812;-66
2022/05/21 01:58:20;;;;;;;5.53;2.70;;;16.30;99.90;;;;;;4416370;28;659733;-66
2022/05/21 02:01:07;;;;;;;4.60;2.00;;;16.70;99.90;;;;;;4392425;28;659941;-66
2022/05/21 02:03:54;;;;;;;5.87;2.40;;;17.00;99.90;;;;;;4413759;28;658617;-66
2022/05/21 02:06:42;;;;;;;7.60;2.37;;;17.20;99.90;;;;;;4398943;28;659125;-66
2022/05/21 02:09:29;;;;;;;5.40;2.70;;;17.40;99.90;;;;;;4411532;28;658654;-66
2022/05/21 02:12:16;;;;;;;8.70;2.77;;;17.50;99.90;;;;;;4395043;28;658285;-66
2022/05/21 02:15:06;;;;;;;3.90;2.83;;;17.50;99.90;;;;;;4414602;28;659028;-66
2022/05/21 02:17:53;;;;;;;3.73;2.20;;;17.50;99.90;;;;;;4391990;28;659535;-66
2022/05/21 02:20:40;;;;;;;6.57;2.50;;;17.60;99.90;;;;;;4378281;28;658723;-66
2022/05/21 02:23:28;;;;;;;5.70;2.00;;;17.50;99.90;;;;;;4418693;28;659824;-66
2022/05/21 02:26:17;;;;;;;4.37;1.90;;;17.50;99.90;;;;;;4408983;28;658910;-66
2022/05/21 02:29:04;;;;;;;4.37;1.63;;;17.50;99.90;;;;;;4415516;28;658605;-66
2022/05/21 02:31:53;;;;;;;7.23;1.77;;;17.50;99.90;;;;;;4400224;28;659410;-66
2022/05/21 02:34:40;;;;;;;5.43;1.80;;;17.50;99.90;;;;;;4388397;28;658581;-66
2022/05/21 02:40:32;;;;;;;4.77;1.70;;;17.50;99.90;;;;;;4398112;28;658696;-66
2022/05/21 02:43:19;;;;;;;4.83;1.83;;;17.60;99.90;;;;;;4415237;28;659630;-66
2022/05/21 02:46:06;;;;;;;8.20;1.97;;;17.70;99.90;;;;;;4394339;28;658487;-66
2022/05/21 02:48:55;;;;;;;3.40;1.67;;;17.80;99.90;;;;;;4414234;28;659162;-66
2022/05/21 02:51:42;;;;;;;4.83;1.80;;;17.80;99.90;;;;;;4393709;28;659797;-66
2022/05/21 02:54:29;;;;;;;4.47;1.50;;;17.80;99.90;;;;;;4415002;28;658536;-66
2022/05/21 02:57:17;;;;;;;2.47;1.30;;;17.80;99.90;;;;;;4393282;28;658620;-66
2022/05/21 03:00:07;;;;;;;5.67;2.07;;;18.00;99.90;;;;;;4421169;28;658584;-66
2022/05/21 03:02:54;;;;;;;4.77;1.80;;;17.90;99.90;;;;;;4394973;28;659311;-66
2022/05/21 03:05:43;;;;;;;6.20;2.00;;;18.00;99.90;;;;;;4397663;28;660317;-66
2022/05/21 03:11:35;;;;;;;6.40;2.00;;;18.10;99.90;;;;;;4412777;28;658496;-66
2022/05/21 03:14:22;;;;;;;3.33;1.90;;;18.10;99.90;;;;;;4421107;28;658783;-66
2022/05/21 03:17:11;;;;;;;6.57;2.17;;;18.10;99.90;;;;;;4415650;28;658665;-66
2022/05/21 03:19:59;;;;;;;7.20;2.50;;;18.10;99.90;;;;;;4392606;28;659253;-66
2022/05/21 03:22:47;;;;;;;5.50;2.23;;;18.00;99.90;;;;;;4384856;28;659806;-66
2022/05/21 03:25:34;;;;;;;7.03;2.37;;;17.90;99.90;;;;;;4416561;28;658182;-66
2022/05/21 03:28:22;;;;;;;11.37;3.40;;;17.90;99.90;;;;;;4397441;28;659357;-66
2022/05/21 03:31:09;;;;;;;6.63;2.50;;;17.90;99.90;;;;;;4416511;28;659966;-66
2022/05/21 03:33:56;;;;;;;8.90;2.80;;;17.90;99.90;;;;;;4399798;28;658445;-66
2022/05/21 03:36:43;;;;;;;6.80;2.33;;;17.90;99.90;;;;;;4419817;28;660178;-66
2022/05/21 03:39:32;;;;;;;5.30;2.50;;;17.90;99.90;;;;;;4399660;28;658686;-66
2022/05/21 03:42:19;;;;;;;12.80;2.63;;;17.90;99.90;;;;;;4422730;28;659776;-66
2022/05/21 03:45:08;;;;;;;10.33;3.00;;;17.90;99.90;;;;;;4400271;28;659799;-66
2022/05/21 03:47:55;;;;;;;6.07;2.85;;;17.80;99.90;;;;;;4398419;28;659724;-66
2022/05/21 03:50:43;;;;;;;9.07;3.00;;;17.80;99.90;;;;;;4417344;28;659736;-66
2022/05/21 03:53:30;;;;;;;3.60;2.03;;;17.90;99.90;;;;;;4412638;28;658586;-66
2022/05/21 03:56:19;;;;;;;9.27;2.90;;;17.90;99.90;;;;;;4425523;28;658690;-66
2022/05/21 03:59:06;;;;;;;7.60;3.20;;;17.90;99.90;;;;;;4398399;28;658531;-66
2022/05/21 04:01:53;;;;;;;12.20;3.05;;;17.90;99.90;;;;;;4407735;28;659394;-66
2022/05/21 04:04:40;;;;;;;5.10;2.80;;;17.90;99.90;;;;;;4401818;28;659366;-66
2022/05/21 04:07:28;;;;;;;10.27;3.63;;;17.80;99.90;;;;;;4418220;28;660645;-66
2022/05/21 04:10:16;;;;;;;5.27;2.70;;;17.80;99.90;;;;;;4401663;28;659563;-66
2022/05/21 04:13:05;;;;;;;9.57;3.20;;;17.90;99.90;;;;;;4421283;28;660027;-66
2022/05/21 04:15:52;;;;;;;5.47;3.10;;;17.90;99.90;;;;;;4384919;28;660263;-66
2022/05/21 04:18:39;;;;;;;6.70;3.03;;;17.90;99.90;;;;;;4420114;28;658334;-66
2022/05/21 04:21:28;;;;;;;7.93;3.00;;;17.90;99.90;;;;;;4402378;28;658627;-66
2022/05/21 04:24:15;;;;;;;5.77;2.80;;;17.90;99.90;;;;;;4399293;28;659662;-66
2022/05/21 04:27:02;;;;;;;5.50;3.40;;;18.00;99.90;;;;;;4417008;28;658237;-66
2022/05/21 04:29:51;;;;;;;7.73;2.83;;;18.00;99.90;;;;;;4415297;28;658920;-66
2022/05/21 04:32:38;;;;;;;5.43;2.80;;;17.90;99.90;;;;;;4392472;28;660802;-66
2022/05/21 04:35:25;;;;;;;11.40;3.10;;;17.90;99.90;;;;;;4400802;28;659396;-66
2022/05/21 04:38:33;;;;;;;7.87;3.40;;;17.90;99.90;;;;;;4366041;28;660557;-66
2022/05/21 04:41:21;;;;;;;5.80;2.90;;;18.00;99.90;;;;;;4382641;28;658729;-66
2022/05/21 04:44:09;;;;;;;7.47;3.13;;;18.00;99.90;;;;;;4421970;28;659240;-66
2022/05/21 04:46:58;;;;;;;8.43;3.17;;;18.00;99.90;;;;;;4398279;28;658745;-66
2022/05/21 04:49:45;;;;;;;7.57;3.37;;;17.90;99.90;;;;;;4409437;28;658444;-66
2022/05/21 04:52:32;;;;;;;8.03;3.60;;;17.90;99.90;;;;;;4421604;28;658642;-66
2022/05/21 04:55:19;;;;;;;8.37;3.23;;;17.90;99.90;;;;;;4414447;28;658751;-66
2022/05/21 04:58:07;;;;;;;10.73;3.50;;;18.00;99.90;;;;;;4395693;28;658750;-66
2022/05/21 05:00:54;;;;;;;7.13;3.00;;;18.00;99.90;;;;;;4405589;28;659615;-66
2022/05/21 05:03:42;;;;;;;7.40;2.97;;;17.90;99.90;;;;;;4402172;28;658861;-66
2022/05/21 05:06:30;;;;;;;6.80;3.17;;;17.80;99.90;;;;;;4417103;28;658845;-67
2022/05/21 05:09:22;;;;;;;10.93;3.40;;;17.50;99.90;;;;;;4426076;28;658488;-66
2022/05/21 05:12:10;;;;;;;7.40;3.83;;;17.40;99.90;;;;;;4395075;28;659530;-67
2022/05/21 05:14:57;;;;;;;8.20;4.03;;;17.20;99.90;;;;;;4396414;28;659563;-66
2022/05/21 05:17:44;;;;;;;7.88;3.65;;;17.00;99.90;;;;;;4422516;28;659147;-66
2022/05/21 05:20:33;;;;;;;10.87;4.17;;;16.70;99.90;;;;;;4397949;28;659296;-66
2022/05/21 05:23:20;;;;;;;7.17;4.50;;;16.60;99.90;;;;;;4382730;28;660528;-67
2022/05/21 05:26:07;;;;;;;10.93;5.17;;;16.50;99.90;;;;;;4422916;28;659180;-66
2022/05/21 05:28:54;;;;;;;18.93;5.07;;;16.40;99.90;;;;;;4421444;28;659339;-67
2022/05/21 05:31:42;;;;;;;6.87;4.17;;;16.30;99.90;;;;;;4396014;28;660121;-66
2022/05/21 05:34:29;;;;;;;13.37;4.53;;;16.20;99.90;;;;;;4424345;28;658453;-66
2022/05/21 05:37:17;;;;;;;13.47;6.00;;;16.20;99.90;;;;;;4384812;28;660739;-66
2022/05/21 05:40:05;;;;;;;21.23;6.53;;;16.20;99.90;;;;;;4415401;28;659927;-66
2022/05/21 05:42:52;;;;;;;12.20;6.10;;;16.20;99.90;;;;;;4395154;28;660893;-66
2022/05/21 05:45:40;;;;;;;9.50;3.87;;;16.20;99.90;;;;;;4413349;28;660676;-66
2022/05/21 05:48:28;;;;;;;10.70;6.40;;;16.20;99.90;;;;;;4419097;28;659780;-66
2022/05/21 05:51:16;;;;;;;10.97;5.90;;;16.30;99.90;;;;;;4395887;28;659904;-66
2022/05/21 05:54:05;;;;;;;10.13;5.60;;;16.40;99.90;;;;;;4412646;28;660626;-66
2022/05/21 05:56:52;;;;;;;14.40;6.63;;;16.50;99.90;;;;;;4398781;28;659884;-66
2022/05/21 05:59:51;;;;;;;16.20;5.83;;;16.70;99.90;;;;;;4417446;28;661279;-66
2022/05/21 06:05:42;;;;;;;18.30;7.00;;;17.00;99.90;;;;;;4364193;28;660321;-66
2022/05/21 06:08:29;;;;;;;13.33;6.80;;;17.00;99.90;;;;;;4414895;28;659501;-66
2022/05/21 06:11:18;;;;;;;14.77;7.23;;;17.10;99.90;;;;;;4385202;28;659890;-66
2022/05/21 06:14:05;;;;;;;14.40;6.97;;;17.20;99.90;;;;;;4394533;28;659771;-66
2022/05/21 06:16:52;;;;;;;13.57;7.40;;;17.20;99.90;;;;;;4422298;28;660807;-66
2022/05/21 06:19:40;;;;;;;13.60;7.20;;;17.40;99.90;;;;;;4406756;28;660261;-66
2022/05/21 06:22:27;;;;;;;10.07;5.33;;;17.40;99.90;;;;;;4407438;28;659272;-65
2022/05/21 06:25:17;;;;;;;18.67;7.40;;;17.30;99.90;;;;;;4405415;28;659570;-66
2022/05/21 06:28:07;;;;;;;16.27;7.43;;;17.50;99.90;;;;;;4386401;28;659659;-66
2022/05/21 06:30:54;;;;;;;14.90;7.10;;;17.50;99.90;;;;;;4385760;28;659769;-66
2022/05/21 06:33:41;;;;;;;18.40;7.43;;;17.60;99.90;;;;;;4392454;28;659300;-66
2022/05/21 06:36:29;;;;;;;13.13;6.90;;;17.60;99.90;;;;;;4408679;28;660392;-65
2022/05/21 06:39:16;;;;;;;17.57;6.07;;;17.80;99.90;;;;;;4392978;28;659980;-66
2022/05/21 06:42:03;;;;;;;11.27;5.50;;;17.70;99.90;;;;;;4423887;28;660883;-65
2022/05/21 06:44:53;;;;;;;17.17;5.20;;;17.60;99.90;;;;;;4379173;28;659851;-66
2022/05/21 06:47:40;;;;;;;12.38;3.90;;;17.50;99.90;;;;;;4387441;28;660089;-65
2022/05/21 06:50:27;;;;;;;10.70;3.40;;;17.70;99.90;;;;;;4416443;28;660130;-66
2022/05/21 06:53:17;;;;;;;5.93;2.90;;;17.80;99.90;;;;;;4409918;28;659645;-66
2022/05/21 06:56:08;;;;;;;11.87;3.30;;;17.80;99.90;;;;;;4413356;28;658900;-66
2022/05/21 06:58:55;;;;;;;15.10;6.57;;;17.60;99.90;;;;;;4366223;28;660307;-66
2022/05/21 07:01:44;;;;;;;11.83;2.80;;;17.80;99.90;;;;;;4417648;28;660283;-66
2022/05/21 07:07:43;;;;;;;8.43;2.90;;;17.80;99.90;;;;;;4378285;28;658776;-66
2022/05/21 07:10:30;;;;;;;10.67;2.93;;;17.80;99.90;;;;;;4377796;28;659685;-66
2022/05/21 07:13:18;;;;;;;13.10;3.10;;;17.60;99.90;;;;;;4419478;28;661276;-66
2022/05/21 07:16:05;;;;;;;5.47;2.33;;;17.70;99.90;;;;;;4397198;28;659777;-66
2022/05/21 07:18:55;;;;;;;13.37;3.10;;;18.00;99.90;;;;;;4420328;28;660179;-67
2022/05/21 07:21:42;;;;;;;8.27;2.53;;;17.90;99.90;;;;;;4389900;28;660817;-65
2022/05/21 07:24:30;;;;;;;8.93;2.50;;;17.70;99.90;;;;;;4402641;28;658283;-66
2022/05/21 07:27:17;;;;;;;15.98;2.17;;;17.90;99.90;;;;;;4420271;28;659008;-66
2022/05/21 07:30:05;;;;;;;6.67;1.67;;;17.90;99.90;;;;;;4417611;28;659383;-66
2022/05/21 07:32:55;;;;;;;6.87;1.33;;;18.10;99.90;;;;;;4394978;28;660041;-66
2022/05/21 07:35:43;;;;;;;14.83;1.83;;;18.10;99.90;;;;;;4391583;28;659451;-66
2022/05/21 07:38:31;;;;;;;23.30;1.90;;;18.00;99.90;;;;;;4395387;28;659658;-66
2022/05/21 07:41:18;;;;;;;7.37;1.40;;;17.50;99.90;;;;;;4413400;28;661184;-66
2022/05/21 07:44:06;;;;;;;22.80;1.63;;;17.80;99.90;;;;;;4398599;28;659948;-66
2022/05/21 07:46:53;;;;;;;8.23;1.43;;;17.90;99.90;;;;;;4420376;28;660920;-66
2022/05/21 07:49:40;;;;;;;6.87;1.00;;;18.20;99.90;;;;;;4393911;28;658496;-66
2022/05/21 07:52:29;;;;;;;12.57;0.90;;;18.50;99.90;;;;;;4420406;28;658502;-66
2022/05/21 07:55:16;;;;;;;13.07;1.27;;;18.30;95.10;;;;;;4403395;28;659515;-66
2022/05/21 07:58:03;;;;;;;13.10;1.20;;;18.50;95.20;;;;;;4415135;28;660791;-66
2022/05/21 08:00:51;;;;;;;8.97;0.83;;;18.70;91.10;;;;;;4395453;28;659322;-65
2022/05/21 08:03:38;;;;;;;6.03;0.80;;;18.20;91.20;;;;;;4421491;28;659571;-65
2022/05/21 08:06:25;;;;;;;8.03;0.80;;;18.50;93.80;;;;;;4404001;28;660039;-65
2022/05/21 08:09:14;;;;;;;12.00;0.87;;;18.60;91.00;;;;;;4417360;28;659738;-66
2022/05/21 08:12:01;;;;;;;9.80;0.90;;;18.90;89.80;;;;;;4401412;28;660533;-66
2022/05/21 08:14:48;;;;;;;2.90;0.77;;;18.70;90.00;;;;;;4416158;28;658962;-66
2022/05/21 08:17:35;;;;;;;7.03;1.10;;;18.70;87.80;;;;;;4395881;28;659062;-66
2022/05/21 08:20:22;;;;;;;11.73;1.10;;;18.60;85.60;;;;;;4414810;28;660433;-66
2022/05/21 08:29:25;;;;;;;13.03;1.30;;;18.90;73.40;;;;;;4386188;28;659678;-66
2022/05/21 08:32:13;;;;;;;10.73;1.30;;;18.90;72.90;;;;;;4396610;28;660907;-66
2022/05/21 08:35:00;;;;;;;12.30;1.40;;;18.60;75.20;;;;;;4401862;28;659379;-66
2022/05/21 08:37:47;;;;;;;16.03;1.20;;;18.80;75.20;;;;;;4413812;28;660919;-66
2022/05/21 08:40:40;;;;;;;7.43;1.03;;;18.80;77.40;;;;;;4413294;28;659865;-66
2022/05/21 08:43:32;;;;;;;15.93;1.50;;;18.90;73.40;;;;;;4389104;28;659846;-66
2022/05/21 08:46:24;;;;;;;13.73;1.17;;;18.80;75.00;;;;;;4388118;28;661778;-66
2022/05/21 08:49:19;;;;;;;23.07;1.20;;;18.90;74.50;;;;;;4400928;28;659620;-66
2022/05/21 08:52:14;;;;;;;14.13;1.13;;;18.80;72.50;;;;;;4398842;28;659689;-66
2022/05/21 08:55:01;;;;;;;8.10;1.10;;;19.20;73.00;;;;;;4397399;28;659718;-66
2022/05/21 08:57:49;;;;;;;11.37;1.00;;;19.40;72.60;;;;;;4406028;28;658616;-66
2022/05/21 09:00:39;;;;;;;8.97;1.80;;;19.10;71.40;;;;;;4396972;28;659782;-66
2022/05/21 09:03:26;;;;;;;12.17;1.03;;;19.00;72.40;;;;;;4390215;28;658681;-66
2022/05/21 09:06:21;;;;;;;3.50;0.50;;;19.10;72.30;;;;;;4417364;28;660200;-66
2022/05/21 09:09:14;;;;;;;10.43;0.90;;;19.30;71.90;;;;;;4385297;28;658832;-67
2022/05/21 09:12:04;;;;;;;7.60;0.93;;;19.00;73.50;;;;;;4384506;28;659715;-66
2022/05/21 09:14:53;;;;;;;7.23;0.70;;;18.80;70.70;;;;;;4396101;28;658820;-66
2022/05/21 09:17:42;;;;;;;6.83;0.70;;;18.80;71.50;;;;;;4400047;28;658965;-66
2022/05/21 09:20:29;;;;;;;2.83;0.73;;;19.20;72.90;;;;;;4412443;28;658183;-66
2022/05/21 09:23:17;;;;;;;4.53;0.80;;;19.40;70.00;;;;;;4391427;28;660310;-66
2022/05/21 09:26:05;;;;;;;6.80;1.47;;;19.40;70.80;;;;;;4414105;28;658836;-66
2022/05/21 09:28:53;;;;;;;6.87;0.93;;;19.70;69.50;;;;;;4390842;28;659790;-66
2022/05/21 09:31:40;;;;;;;9.90;0.90;;;19.70;69.90;;;;;;4409570;28;658869;-66
2022/05/21 09:34:30;;;;;;;9.97;0.93;;;19.40;70.90;;;;;;4411160;28;659264;-66
2022/05/21 09:37:18;;;;;;;5.03;0.80;;;19.90;75.70;;;;;;4383400;28;659652;-66
2022/05/21 09:40:22;;;;;;;1.40;0.70;;;19.70;73.90;;;;;;4393897;28;658457;-66
2022/05/21 09:46:22;;;;;;;7.13;0.90;;;20.20;70.90;;;;;;4398314;28;659735;-66
2022/05/21 09:49:22;;;;;;;13.50;0.67;;;20.10;71.70;;;;;;4408796;28;659688;-66
2022/05/21 09:52:21;;;;;;;5.83;0.80;;;20.50;68.60;;;;;;4390353;28;659523;-66
2022/05/21 09:55:24;;;;;;;15.70;1.60;;;20.30;66.20;;;;;;4386455;28;659406;-66
2022/05/21 09:58:14;;;;;;;8.73;0.90;;;19.50;68.40;;;;;;4373892;28;660269;-66
2022/05/21 10:01:01;;;;;;;4.00;1.00;;;19.10;70.40;;;;;;4393092;28;659157;-66
2022/05/21 10:03:50;;;;;;;9.87;0.90;;;19.00;68.80;;;;;;4414737;28;658728;-66
2022/05/21 10:06:40;;;;;;;5.13;0.80;;;19.70;72.50;;;;;;4385179;28;659493;-66
2022/05/21 10:12:35;;;;;;;4.60;0.87;;;19.30;68.30;;;;;;4365952;28;659006;-66
2022/05/21 10:15:24;;;;;;;7.80;0.80;;;19.10;65.00;;;;;;4419628;28;658972;-65
2022/05/21 10:18:24;;;;;;;3.53;0.90;;;18.90;66.90;;;;;;4391143;28;658968;-66
2022/05/21 10:21:13;;;;;;;4.50;1.00;;;19.10;67.60;;;;;;4390622;28;658686;-66
2022/05/21 10:24:03;;;;;;;2.53;0.60;;;19.90;67.20;;;;;;4399918;28;658549;-65
2022/05/21 10:26:57;;;;;;;4.83;0.67;;;20.20;65.20;;;;;;4393885;28;658559;-67
2022/05/21 10:29:56;;;;;;;9.40;0.83;;;20.20;62.30;;;;;;4392538;28;659513;-66
2022/05/21 10:33:12;;;;;;;10.17;1.17;;;21.10;64.20;;;;;;4391489;28;659889;-66
2022/05/21 10:36:04;;;;;;;7.53;1.00;;;21.30;65.60;;;;;;4393459;28;660347;-66
2022/05/21 10:39:25;;;;;;;5.00;0.90;;;20.80;60.90;;;;;;4394086;28;658545;-66
2022/05/21 10:42:19;;;;;;;9.70;0.73;;;19.50;62.60;;;;;;4350759;28;659574;-66
2022/05/21 10:45:17;;;;;;;5.80;0.80;;;19.50;65.00;;;;;;4383572;28;658728;-66
2022/05/21 10:48:32;;;;;;;6.30;1.00;;;20.40;62.90;;;;;;4393971;28;658911;-66
2022/05/21 10:51:21;;;;;;;2.27;0.60;;;21.30;61.30;;;;;;4397620;28;659348;-66
2022/05/21 10:54:25;;;;;;;3.80;0.90;;;20.80;59.80;;;;;;4394964;28;659467;-67
2022/05/21 10:57:35;;;;;;;2.13;0.60;;;20.50;61.60;;;;;;4379788;28;658846;-66
2022/05/21 11:00:26;;;;;;;6.37;0.70;;;19.80;60.80;;;;;;4379340;28;659820;-66
2022/05/21 11:03:50;;;;;;;6.80;0.93;;;20.80;62.30;;;;;;4388088;28;659880;-67
2022/05/21 11:07:01;;;;;;;3.37;0.80;;;20.50;59.90;;;;;;4365228;28;659530;-66
2022/05/21 11:09:51;;;;;;;6.17;0.80;;;21.10;59.60;;;;;;4387811;28;658899;-66
2022/05/21 11:12:51;;;;;;;7.00;0.80;;;22.10;59.80;;;;;;4391801;28;658639;-67
2022/05/21 11:15:39;;;;;;;8.57;1.00;;;21.60;58.10;;;;;;4389303;28;659141;-66
2022/05/21 11:18:31;;;;;;;8.20;0.90;;;21.60;59.10;;;;;;4389416;28;658829;-67
2022/05/21 11:21:22;;;;;;;8.03;0.97;;;20.90;59.10;;;;;;4388698;28;659069;-66
2022/05/21 11:24:13;;;;;;;6.33;0.73;;;20.60;60.20;;;;;;4388494;28;658460;-66
2022/05/21 11:27:01;;;;;;;6.80;1.00;;;20.50;63.40;;;;;;4394660;28;658483;-67
2022/05/21 11:29:52;;;;;;;6.70;1.00;;;21.40;60.40;;;;;;4424278;28;658504;-66
2022/05/21 11:38:54;;;;;;;3.37;1.10;;;20.70;61.30;;;;;;4387763;28;659583;-66
2022/05/21 11:42:00;;;;;;;5.17;0.83;;;20.90;61.90;;;;;;4373742;28;660266;-67
2022/05/21 11:44:58;;;;;;;16.97;1.57;;;21.50;62.30;;;;;;4356647;28;659723;-66
2022/05/21 11:47:54;;;;;;;4.27;0.80;;;21.30;59.60;;;;;;4382617;28;659778;-66
2022/05/21 11:50:41;;;;;;;5.20;0.93;;;21.00;61.00;;;;;;4365724;28;659509;-66
2022/05/21 11:53:36;;;;;;;10.00;1.10;;;20.60;60.60;;;;;;4418397;28;660158;-66
2022/05/21 11:56:25;;;;;;;7.53;0.93;;;20.70;59.00;;;;;;4372319;28;660292;-66
2022/05/21 11:59:15;;;;;;;6.60;1.23;;;21.30;58.00;;;;;;4392961;28;660569;-67
2022/05/21 12:02:17;;;;;;;4.07;1.10;;;21.20;57.70;;;;;;4388797;28;659581;-67
2022/05/21 12:05:08;;;;;;;7.93;1.30;;;21.20;57.10;;;;;;4388167;28;658843;-67
2022/05/21 12:07:57;;;;;;;6.20;0.90;;;21.50;57.60;;;;;;4352357;28;659291;-67
2022/05/21 12:10:55;;;;;;;5.13;1.00;;;21.10;57.30;;;;;;4414009;28;658693;-66
2022/05/21 12:14:01;;;;;;;9.30;0.77;;;21.50;56.80;;;;;;4369453;28;658942;-67
2022/05/21 12:16:51;;;;;;;4.67;1.00;;;21.70;56.70;;;;;;4388401;28;659066;-67
2022/05/21 12:20:10;;;;;;;6.23;1.00;;;21.40;56.70;;;;;;4388654;28;659527;-67
2022/05/21 12:22:57;;;;;;;4.10;0.67;;;22.00;56.30;;;;;;4364285;28;658995;-67
2022/05/21 12:25:55;;;;;;;6.17;0.90;;;21.90;56.50;;;;;;4408498;28;659063;-67
2022/05/21 12:28:47;;;;;;;5.00;1.20;;;21.70;56.90;;;;;;4396149;28;658602;-67
2022/05/21 12:31:40;;;;;;;7.33;1.10;;;21.80;56.90;;;;;;4398964;28;659013;-67
2022/05/21 12:34:54;;;;;;;5.37;0.90;;;22.40;56.90;;;;;;4383183;28;660609;-67
2022/05/21 12:37:43;;;;;;;7.63;0.90;;;22.30;55.70;;;;;;4369277;28;659449;-67
2022/05/21 12:40:36;;;;;;;9.50;0.73;;;22.30;56.80;;;;;;4395272;28;658614;-66
2022/05/21 12:43:24;;;;;;;3.40;0.93;;;22.10;55.20;;;;;;4388045;28;659422;-67
2022/05/21 12:46:22;;;;;;;7.20;0.90;;;22.40;55.80;;;;;;4375265;28;659026;-67
2022/05/21 12:49:12;;;;;;;6.70;0.80;;;21.30;56.40;;;;;;4375360;28;659571;-67
2022/05/21 12:51:59;;;;;;;4.07;1.00;;;21.70;55.80;;;;;;4388891;28;658525;-67
2022/05/21 12:54:47;;;;;;;5.87;1.13;;;21.50;54.80;;;;;;4393284;28;658840;-67
2022/05/21 12:57:35;;;;;;;4.63;0.90;;;20.90;56.60;;;;;;4409752;28;658861;-67
2022/05/21 13:00:24;;;;;;;8.17;1.13;;;21.00;58.00;;;;;;4410610;28;659957;-67
2022/05/21 13:03:11;;;;;;;2.63;1.10;;;20.50;59.60;;;;;;4390751;28;658684;-67
2022/05/21 13:06:00;;;;;;;4.97;0.90;;;20.50;58.70;;;;;;4409871;28;659649;-66
2022/05/21 13:08:47;;;;;;;6.33;0.93;;;20.90;58.10;;;;;;4387246;28;659023;-66
2022/05/21 13:11:41;;;;;;;5.57;1.10;;;21.10;56.60;;;;;;4419570;28;659650;-67
2022/05/21 13:14:35;;;;;;;7.80;1.07;;;21.50;56.20;;;;;;4387762;28;659089;-67
2022/05/21 13:17:28;;;;;;;6.77;0.90;;;21.60;56.50;;;;;;4363863;28;659076;-67
2022/05/21 13:20:17;;;;;;;6.47;0.90;;;21.70;55.70;;;;;;4366798;28;659220;-67
2022/05/21 13:23:12;;;;;;;6.57;0.90;;;22.00;55.80;;;;;;4417565;28;659374;-66
2022/05/21 13:25:59;;;;;;;8.07;0.73;;;21.30;55.80;;;;;;4389642;28;659350;-66
2022/05/21 13:28:48;;;;;;;6.93;1.00;;;20.90;57.90;;;;;;4386455;28;658771;-66
2022/05/21 13:31:35;;;;;;;7.17;1.20;;;21.40;56.60;;;;;;4395487;28;658735;-67
2022/05/21 13:34:24;;;;;;;5.73;0.80;;;20.90;56.60;;;;;;4415078;28;658722;-67
2022/05/21 13:37:11;;;;;;;3.87;0.73;;;21.10;56.70;;;;;;4391765;28;658547;-66
2022/05/21 13:40:01;;;;;;;3.37;0.83;;;20.40;56.50;;;;;;4411111;28;660432;-67
2022/05/21 13:42:49;;;;;;;6.80;0.67;;;20.40;57.60;;;;;;4387889;28;659418;-67
2022/05/21 13:45:39;;;;;;;3.13;0.80;;;21.00;57.60;;;;;;4390025;28;658437;-67
2022/05/21 13:48:28;;;;;;;6.67;0.90;;;20.80;55.70;;;;;;4391785;28;658443;-66
2022/05/21 13:51:17;;;;;;;4.20;0.80;;;21.40;55.30;;;;;;4375185;28;658563;-66
2022/05/21 13:54:05;;;;;;;7.17;0.80;;;21.10;56.00;;;;;;4405976;28;658869;-66
2022/05/21 13:57:03;;;;;;;3.40;0.90;;;21.00;55.10;;;;;;4409022;28;660785;-66
2022/05/21 13:59:56;;;;;;;4.57;0.87;;;21.80;56.10;;;;;;4390321;28;658561;-66
2022/05/21 14:02:47;;;;;;;3.97;1.00;;;21.10;55.60;;;;;;4398096;28;658929;-66
2022/05/21 14:05:47;;;;;;;2.00;0.90;;;21.10;56.00;;;;;;4386660;28;658357;-67
2022/05/21 14:08:35;;;;;;;5.93;0.90;;;21.30;55.80;;;;;;4386894;28;658513;-66
2022/05/21 14:11:23;;;;;;;1.40;0.80;;;21.30;55.70;;;;;;4375949;28;659046;-66
2022/05/21 14:14:14;;;;;;;7.53;1.10;;;21.10;54.40;;;;;;4395799;28;658716;-67
2022/05/21 14:17:18;;;;;;;4.73;1.47;;;21.20;55.90;;;;;;4374403;28;658865;-66
2022/05/21 14:20:24;;;;;;;1.33;0.60;;;21.20;55.20;;;;;;4367815;28;659313;-66
2022/05/21 14:23:27;;;;;;;4.27;0.90;;;20.60;56.00;;;;;;4387715;28;658199;-67
2022/05/21 14:26:32;;;;;;;6.53;1.00;;;20.80;57.10;;;;;;4405236;28;659376;-67
2022/05/21 14:29:39;;;;;;;9.43;0.97;;;21.40;56.00;;;;;;4386225;28;658494;-66
2022/05/21 14:32:30;;;;;;;3.37;0.87;;;21.50;55.60;;;;;;4389721;28;659232;-67
2022/05/21 14:35:25;;;;;;;10.93;0.97;;;21.60;55.20;;;;;;4376871;28;659436;-67
2022/05/21 14:38:13;;;;;;;4.50;0.80;;;21.90;54.70;;;;;;4361384;28;659462;-67
2022/05/21 14:41:01;;;;;;;1.00;0.67;;;21.50;55.10;;;;;;4389654;28;658550;-67
2022/05/21 14:43:48;;;;;;;1.67;1.10;;;20.90;55.10;;;;;;4412745;28;659452;-67
2022/05/21 14:49:41;;;;;;;3.92;1.10;;;21.30;54.40;;;;;;4378616;28;658394;-67
2022/05/21 14:55:33;;;;;;;3.73;1.10;;;20.50;55.10;;;;;;4384996;28;659190;-67
2022/05/21 14:58:21;;;;;;;3.83;0.90;;;20.80;55.90;;;;;;4388790;28;658973;-66
2022/05/21 15:01:09;;;;;;;7.60;1.17;;;20.60;55.80;;;;;;4412274;28;660676;-67
2022/05/21 15:03:57;;;;;;;3.10;0.80;;;20.20;55.90;;;;;;4378747;28;659104;-68
2022/05/21 15:06:44;;;;;;;4.40;0.87;;;19.50;57.00;;;;;;4412562;28;658217;-67
2022/05/21 15:09:33;;;;;;;5.30;0.73;;;19.10;58.80;;;;;;4381585;28;658957;-67
2022/05/21 15:12:20;;;;;;;3.23;1.00;;;20.30;58.70;;;;;;4378801;28;659340;-67